createdAt,value
2022-09-06T00:01:12.034Z,1.30
2022-09-06T00:03:40.355Z,1.30
2022-09-06T00:06:10.310Z,1.53
2022-09-06T00:08:38.135Z,1.17
2022-09-06T00:11:07.354Z,1.30
2022-09-06T00:13:35.242Z,1.20
2022-09-06T00:16:07.420Z,1.40
2022-09-06T00:18:35.020Z,1.40
2022-09-06T00:21:03.076Z,1.20
2022-09-06T00:23:30.779Z,1.47
2022-09-06T00:26:04.073Z,1.23
2022-09-06T00:28:33.011Z,1.20
2022-09-06T00:31:08.363Z,1.20
2022-09-06T00:33:36.158Z,1.30
2022-09-06T00:36:04.147Z,1.17
2022-09-06T00:38:31.798Z,1.33
2022-09-06T00:40:59.514Z,1.30
2022-09-06T00:43:27.143Z,1.30
2022-09-06T00:45:56.997Z,1.20
2022-09-06T00:48:25.313Z,1.27
2022-09-06T00:50:56.762Z,1.17
2022-09-06T00:53:25.469Z,1.33
2022-09-06T00:55:53.575Z,1.37
2022-09-06T00:58:21.839Z,1.10
2022-09-06T01:00:49.377Z,1.13
2022-09-06T01:03:19.393Z,1.40
2022-09-06T01:05:58.037Z,1.30
2022-09-06T01:08:38.251Z,1.23
2022-09-06T01:11:20.220Z,1.10
2022-09-06T01:13:55.651Z,1.30
2022-09-06T01:16:31.211Z,1.30
2022-09-06T01:19:22.471Z,1.40
2022-09-06T01:21:56.985Z,1.30
2022-09-06T01:24:48.542Z,1.20
2022-09-06T01:27:54.810Z,1.40
2022-09-06T01:30:22.522Z,1.17
2022-09-06T01:32:57.207Z,1.40
2022-09-06T01:35:28.785Z,1.20
2022-09-06T01:37:57.635Z,1.20
2022-09-06T01:40:25.167Z,1.40
2022-09-06T01:42:54.579Z,1.27
2022-09-06T01:45:28.576Z,1.20
2022-09-06T01:48:06.157Z,1.20
2022-09-06T01:50:54.404Z,1.13
2022-09-06T01:53:58.369Z,1.40
2022-09-06T01:56:38.287Z,1.30
2022-09-06T01:59:32.592Z,1.20
2022-09-06T02:02:07.049Z,1.33
2022-09-06T02:04:41.173Z,1.40
2022-09-06T02:07:14.527Z,1.27
2022-09-06T02:09:46.380Z,1.13
2022-09-06T02:12:15.667Z,1.30
2022-09-06T02:14:52.173Z,1.53
2022-09-06T02:17:26.181Z,1.30
2022-09-06T02:19:58.066Z,1.20
2022-09-06T02:22:31.076Z,1.23
2022-09-06T02:25:01.272Z,1.60
2022-09-06T02:27:31.038Z,1.30
2022-09-06T02:30:02.860Z,1.40
2022-09-06T02:32:32.245Z,1.30
2022-09-06T02:34:59.879Z,1.50
2022-09-06T02:37:28.332Z,1.30
2022-09-06T02:39:56.667Z,1.30
2022-09-06T02:42:25.895Z,1.40
2022-09-06T02:44:53.615Z,1.33
2022-09-06T02:47:22.549Z,1.30
2022-09-06T02:49:50.563Z,1.17
2022-09-06T02:52:18.088Z,1.50
2022-09-06T02:54:45.919Z,1.40
2022-09-06T02:57:14.100Z,1.30
2022-09-06T02:59:41.641Z,1.40
2022-09-06T03:02:09.227Z,1.40
2022-09-06T03:04:38.124Z,1.30
2022-09-06T03:07:05.873Z,1.37
2022-09-06T03:09:33.403Z,1.35
2022-09-06T03:12:00.949Z,1.40
2022-09-06T03:14:28.482Z,1.40
2022-09-06T03:16:56.073Z,1.47
2022-09-06T03:19:23.669Z,1.20
2022-09-06T03:21:52.552Z,1.20
2022-09-06T03:24:20.077Z,1.37
2022-09-06T03:26:47.623Z,1.20
2022-09-06T03:29:15.164Z,1.33
2022-09-06T03:31:42.928Z,1.30
2022-09-06T03:34:11.296Z,1.20
2022-09-06T03:36:39.238Z,1.40
2022-09-06T03:39:08.116Z,1.30
2022-09-06T03:41:35.722Z,1.40
2022-09-06T03:44:03.852Z,1.27
2022-09-06T03:46:31.389Z,1.20
2022-09-06T03:48:59.532Z,1.20
2022-09-06T03:51:27.259Z,1.20
2022-09-06T03:53:55.521Z,1.40
2022-09-06T03:56:24.402Z,1.20
2022-09-06T03:58:51.970Z,1.37
2022-09-06T04:01:19.840Z,1.50
2022-09-06T04:03:47.891Z,1.30
2022-09-06T04:06:15.443Z,1.27
2022-09-06T04:08:43.218Z,1.30
2022-09-06T04:11:11.555Z,1.30
2022-09-06T04:13:41.458Z,1.20
2022-09-06T04:16:09.028Z,1.20
2022-09-06T04:18:36.629Z,1.30
2022-09-06T04:21:04.570Z,1.40
2022-09-06T04:23:35.236Z,1.40
2022-09-06T04:26:05.544Z,1.20
2022-09-06T04:28:33.110Z,1.30
2022-09-06T04:31:04.923Z,1.30
2022-09-06T04:33:34.559Z,1.30
2022-09-06T04:36:04.466Z,1.10
2022-09-06T04:38:36.616Z,1.20
2022-09-06T04:41:04.520Z,1.20
2022-09-06T04:43:32.061Z,1.40
2022-09-06T04:46:06.253Z,1.50
2022-09-06T04:48:33.928Z,1.40
2022-09-06T04:51:01.444Z,1.40
2022-09-06T04:53:29.002Z,1.33
2022-09-06T04:55:58.535Z,1.40
2022-09-06T04:58:26.616Z,1.50
2022-09-06T05:00:54.793Z,1.30
2022-09-06T05:03:23.767Z,1.53
2022-09-06T05:05:51.427Z,1.53
2022-09-06T05:08:18.999Z,1.23
2022-09-06T05:10:46.548Z,1.30
2022-09-06T05:13:14.105Z,1.37
2022-09-06T05:15:41.631Z,1.37
2022-09-06T05:18:12.857Z,1.43
2022-09-06T05:20:44.390Z,1.23
2022-09-06T05:23:12.013Z,1.37
2022-09-06T05:25:39.545Z,1.70
2022-09-06T05:28:07.083Z,1.40
2022-09-06T05:30:34.625Z,1.47
2022-09-06T05:33:02.292Z,1.40
2022-09-06T05:35:29.896Z,1.40
2022-09-06T05:37:58.810Z,1.27
2022-09-06T05:40:26.357Z,1.40
2022-09-06T05:42:53.897Z,1.60
2022-09-06T05:45:21.504Z,1.50
2022-09-06T05:47:50.250Z,1.30
2022-09-06T05:50:17.807Z,1.50
2022-09-06T05:52:45.784Z,1.60
2022-09-06T05:55:14.972Z,1.40
2022-09-06T05:57:42.509Z,1.30
2022-09-06T06:00:12.265Z,1.30
2022-09-06T06:02:40.877Z,1.83
2022-09-06T06:05:09.253Z,1.40
2022-09-06T06:07:36.777Z,1.20
2022-09-06T06:10:04.771Z,1.33
2022-09-06T06:12:33.678Z,1.43
2022-09-06T06:15:01.223Z,1.33
2022-09-06T06:17:28.876Z,1.57
2022-09-06T06:19:56.406Z,1.70
2022-09-06T06:22:24.174Z,1.30
2022-09-06T06:24:51.722Z,1.50
2022-09-06T06:27:19.271Z,1.37
2022-09-06T06:29:48.178Z,1.43
2022-09-06T06:32:15.765Z,1.30
2022-09-06T06:34:43.369Z,1.40
2022-09-06T06:37:10.964Z,1.40
2022-09-06T06:39:38.695Z,1.38
2022-09-06T06:42:06.503Z,1.40
2022-09-06T06:44:34.076Z,1.45
2022-09-06T06:47:02.947Z,1.40
2022-09-06T06:49:30.512Z,1.30
2022-09-06T06:51:58.067Z,1.27
2022-09-06T06:54:25.724Z,1.30
2022-09-06T06:56:53.308Z,1.38
2022-09-06T06:59:21.253Z,1.33
2022-09-06T07:01:50.545Z,1.40
2022-09-06T07:04:19.467Z,1.30
2022-09-06T07:12:26.874Z,1.30
2022-09-06T07:14:54.411Z,1.40
2022-09-06T07:17:21.986Z,1.60
2022-09-06T07:22:38.711Z,1.60
2022-09-06T07:25:07.029Z,1.70
2022-09-06T07:27:50.469Z,1.40
2022-09-06T07:30:19.492Z,1.60
2022-09-06T07:32:47.051Z,1.40
2022-09-06T07:35:16.065Z,1.40
2022-09-06T07:37:43.664Z,1.60
2022-09-06T07:40:12.413Z,1.60
2022-09-06T07:42:40.049Z,1.60
2022-09-06T07:45:08.484Z,1.58
2022-09-06T07:53:17.522Z,1.75
2022-09-06T07:55:47.064Z,1.70
2022-09-06T07:58:14.619Z,1.55
2022-09-06T08:00:42.246Z,1.80
2022-09-06T08:03:10.186Z,1.80
2022-09-06T08:11:14.891Z,1.55
2022-09-06T08:13:42.632Z,1.55
2022-09-06T08:16:11.904Z,1.67
2022-09-06T08:18:39.579Z,1.88
2022-09-06T08:21:12.605Z,1.60
2022-09-06T08:23:42.678Z,1.70
2022-09-06T08:26:10.317Z,1.75
2022-09-06T08:28:37.957Z,1.75
2022-09-06T08:31:10.075Z,1.80
2022-09-06T08:33:38.581Z,1.77
2022-09-06T08:36:07.009Z,1.80
2022-09-06T08:38:36.351Z,1.83
2022-09-06T08:41:09.594Z,1.80
2022-09-06T08:43:38.500Z,1.95
2022-09-06T08:46:08.760Z,1.60
2022-09-06T08:48:39.681Z,1.80
2022-09-06T08:51:42.393Z,1.70
2022-09-06T08:54:17.860Z,1.67
2022-09-06T08:57:05.555Z,1.63
2022-09-06T08:59:38.683Z,1.60
2022-09-06T09:02:13.288Z,1.67
2022-09-06T09:04:45.369Z,1.85
2022-09-06T09:07:34.430Z,1.63
2022-09-06T09:10:08.908Z,1.70
2022-09-06T09:12:43.706Z,1.60
2022-09-06T09:15:14.418Z,1.50
2022-09-06T09:17:42.919Z,1.50
2022-09-06T09:20:11.587Z,1.70
2022-09-06T09:22:40.845Z,1.80
2022-09-06T09:25:17.240Z,1.73
2022-09-06T09:27:46.535Z,1.70
2022-09-06T09:33:01.995Z,1.70
2022-09-06T09:35:33.888Z,1.90
2022-09-06T09:38:08.093Z,1.60
2022-09-06T09:40:43.208Z,1.70
2022-09-06T09:43:22.386Z,1.70
2022-09-06T09:46:12.214Z,1.70
2022-09-06T09:48:40.603Z,1.58
2022-09-06T09:51:26.706Z,1.63
2022-09-06T09:53:56.836Z,1.80
2022-09-06T09:56:38.173Z,1.95
2022-09-06T09:59:16.848Z,1.80
2022-09-06T10:01:44.533Z,1.60
2022-09-06T10:07:11.130Z,1.45
2022-09-06T10:09:42.412Z,1.70
2022-09-06T10:12:17.286Z,1.40
2022-09-06T10:14:47.109Z,1.77
2022-09-06T10:17:30.955Z,1.50
2022-09-06T10:20:03.473Z,1.60
2022-09-06T10:22:32.535Z,1.33
2022-09-06T10:25:24.424Z,1.40
2022-09-06T10:28:11.432Z,1.50
2022-09-06T10:30:46.878Z,1.42
2022-09-06T10:33:27.143Z,1.40
2022-09-06T10:35:58.593Z,1.30
2022-09-06T10:38:36.884Z,1.30
2022-09-06T10:41:25.041Z,1.48
2022-09-06T10:44:01.891Z,1.40
2022-09-06T10:46:33.633Z,1.30
2022-09-06T10:49:01.184Z,1.35
2022-09-06T10:51:35.483Z,1.33
2022-09-06T10:54:08.831Z,1.30
2022-09-06T10:56:43.251Z,1.50
2022-09-06T10:59:35.657Z,1.33
2022-09-06T11:02:17.033Z,1.23
2022-09-06T11:07:38.745Z,1.30
2022-09-06T11:10:14.316Z,1.40
2022-09-06T11:12:46.258Z,1.27
2022-09-06T11:15:17.664Z,1.40
2022-09-06T11:17:49.830Z,1.20
2022-09-06T11:20:27.393Z,1.20
2022-09-06T11:23:31.445Z,1.30
2022-09-06T11:26:31.507Z,1.40
2022-09-06T11:29:01.487Z,1.30
2022-09-06T11:34:23.126Z,1.33
2022-09-06T11:36:52.911Z,1.30
2022-09-06T11:43:03.062Z,1.30
2022-09-06T11:45:41.744Z,1.42
2022-09-06T11:48:37.269Z,1.20
2022-09-06T11:51:10.600Z,1.30
2022-09-06T11:54:06.006Z,1.40
2022-09-06T11:56:40.369Z,1.40
2022-09-06T11:59:14.996Z,1.20
2022-09-06T12:01:59.551Z,1.30
2022-09-06T12:05:09.285Z,1.15
2022-09-06T12:07:37.960Z,1.17
2022-09-06T12:10:46.599Z,1.40
2022-09-06T12:13:50.481Z,1.33
2022-09-06T12:16:19.063Z,1.30
2022-09-06T12:19:01.445Z,1.10
2022-09-06T12:21:43.608Z,1.23
2022-09-06T12:24:50.174Z,1.08
2022-09-06T12:27:19.058Z,1.20
2022-09-06T12:29:54.858Z,1.20
2022-09-06T12:32:26.593Z,1.20
2022-09-06T12:37:55.498Z,1.20
2022-09-06T12:40:25.200Z,1.30
2022-09-06T12:42:53.010Z,1.30
2022-09-06T12:45:27.104Z,1.35
2022-09-06T12:48:05.792Z,1.20
2022-09-06T12:50:34.170Z,1.30
2022-09-06T12:53:04.939Z,1.30
2022-09-06T12:55:35.166Z,1.30
2022-09-06T12:58:05.344Z,1.20
2022-09-06T13:00:37.776Z,1.10
2022-09-06T13:03:20.239Z,1.20
2022-09-06T13:05:48.003Z,1.10
2022-09-06T13:08:24.933Z,1.10
2022-09-06T13:10:53.273Z,1.10
2022-09-06T13:13:24.081Z,1.35
2022-09-06T13:15:52.793Z,1.40
2022-09-06T13:18:23.414Z,1.20
2022-09-06T13:21:03.149Z,1.20
2022-09-06T13:23:42.113Z,1.02
2022-09-06T13:26:09.863Z,1.48
2022-09-06T13:28:37.971Z,1.15
2022-09-06T13:31:09.590Z,1.30
2022-09-06T13:33:38.279Z,1.20
2022-09-06T13:36:19.922Z,1.20
2022-09-06T13:38:48.928Z,1.30
2022-09-06T13:41:38.736Z,1.27
2022-09-06T13:44:12.463Z,1.20
2022-09-06T13:46:40.214Z,1.30
2022-09-06T13:49:07.991Z,1.40
2022-09-06T13:51:36.383Z,1.25
2022-09-06T13:54:07.581Z,1.23
2022-09-06T13:56:35.397Z,1.20
2022-09-06T13:59:02.929Z,1.55
2022-09-06T14:01:30.890Z,1.48
2022-09-06T14:03:58.457Z,1.33
2022-09-06T14:06:26.065Z,1.27
2022-09-06T14:09:06.791Z,1.30
2022-09-06T14:11:37.470Z,1.38
2022-09-06T14:14:05.315Z,1.42
2022-09-06T14:16:33.080Z,1.35
2022-09-06T14:19:00.763Z,1.23
2022-09-06T14:21:28.372Z,1.40
2022-09-06T14:23:58.848Z,1.40
2022-09-06T14:26:29.309Z,1.30
2022-09-06T14:28:58.167Z,1.40
2022-09-06T14:31:27.460Z,1.17
2022-09-06T14:33:55.898Z,1.45
2022-09-06T14:36:25.816Z,1.27
2022-09-06T14:38:53.978Z,1.23
2022-09-06T14:41:21.825Z,1.40
2022-09-06T14:43:51.578Z,1.20
2022-09-06T14:46:22.866Z,1.30
2022-09-06T14:48:57.471Z,1.30
2022-09-06T14:51:25.171Z,1.15
2022-09-06T14:53:55.626Z,1.10
2022-09-06T14:56:23.836Z,1.25
2022-09-06T14:58:51.580Z,1.48
2022-09-06T15:01:22.868Z,1.27
2022-09-06T15:03:52.436Z,1.13
2022-09-06T15:06:21.989Z,1.33
2022-09-06T15:08:50.086Z,1.13
2022-09-06T15:11:30.091Z,1.27
2022-09-06T15:13:58.607Z,1.20
2022-09-06T15:16:28.079Z,1.30
2022-09-06T15:18:56.050Z,1.17
2022-09-06T15:21:24.673Z,1.60
2022-09-06T15:23:53.003Z,1.42
2022-09-06T15:26:21.318Z,1.25
2022-09-06T15:28:49.210Z,1.30
2022-09-06T15:31:19.158Z,1.33
2022-09-06T15:33:48.829Z,1.40
2022-09-06T15:36:16.703Z,1.10
2022-09-06T15:38:47.276Z,1.40
2022-09-06T15:41:16.569Z,1.60
2022-09-06T15:43:47.307Z,1.58
2022-09-06T15:46:15.866Z,1.42
2022-09-06T15:48:44.837Z,1.38
2022-09-06T15:51:16.717Z,1.20
2022-09-06T15:53:45.245Z,1.40
2022-09-06T15:56:15.719Z,1.15
2022-09-06T15:58:45.661Z,1.40
2022-09-06T16:01:15.132Z,1.40
2022-09-06T16:03:45.355Z,1.33
2022-09-06T16:08:53.324Z,1.40
2022-09-06T16:11:21.039Z,1.20
2022-09-06T16:13:48.749Z,1.33
2022-09-06T16:16:17.821Z,1.50
2022-09-06T16:18:47.775Z,1.70
2022-09-06T16:21:18.924Z,1.10
2022-09-06T16:23:50.586Z,1.05
2022-09-06T16:26:21.581Z,1.20
2022-09-06T16:28:50.881Z,1.00
2022-09-06T16:31:20.519Z,0.95
2022-09-06T16:33:48.924Z,1.00
2022-09-06T16:36:19.378Z,1.00
2022-09-06T16:38:47.592Z,0.70
2022-09-06T16:41:18.806Z,0.90
2022-09-06T16:43:47.374Z,1.10
2022-09-06T16:46:15.086Z,1.13
2022-09-06T16:48:43.067Z,0.93
2022-09-06T16:51:13.070Z,1.00
2022-09-06T16:53:43.963Z,0.98
2022-09-06T16:56:12.749Z,1.20
2022-09-06T16:58:41.742Z,1.38
2022-09-06T17:01:10.375Z,1.02
2022-09-06T17:03:39.334Z,1.48
2022-09-06T17:06:08.209Z,1.33
2022-09-06T17:08:37.298Z,1.23
2022-09-06T17:11:09.254Z,1.10
2022-09-06T17:13:37.648Z,1.30
2022-09-06T17:16:23.710Z,1.20
2022-09-06T17:18:53.595Z,1.00
2022-09-06T17:21:22.113Z,1.20
2022-09-06T17:23:50.399Z,1.10
2022-09-06T17:26:20.597Z,0.90
2022-09-06T17:28:48.916Z,1.20
2022-09-06T17:31:21.026Z,0.90
2022-09-06T17:33:51.374Z,1.02
2022-09-06T17:36:21.196Z,1.15
2022-09-06T17:38:53.300Z,1.08
2022-09-06T17:41:25.313Z,1.20
2022-09-06T17:43:54.062Z,1.10
2022-09-06T17:46:27.919Z,1.00
2022-09-06T17:48:57.173Z,1.02
2022-09-06T17:51:25.347Z,0.98
2022-09-06T17:53:53.542Z,1.10
2022-09-06T17:56:23.078Z,1.23
2022-09-06T17:58:55.759Z,1.20
2022-09-06T18:01:25.269Z,1.17
2022-09-06T18:03:53.530Z,1.10
2022-09-06T18:06:23.664Z,1.23
2022-09-06T18:08:52.802Z,1.30
2022-09-06T18:11:24.505Z,1.55
2022-09-06T18:13:56.628Z,1.10
2022-09-06T18:16:24.343Z,1.10
2022-09-06T18:18:53.027Z,1.23
2022-09-06T18:21:21.492Z,1.20
2022-09-06T18:23:49.084Z,0.98
2022-09-06T18:26:17.270Z,1.10
2022-09-06T18:28:46.297Z,1.20
2022-09-06T18:31:15.824Z,0.90
2022-09-06T18:33:44.120Z,1.20
2022-09-06T18:36:15.377Z,1.10
2022-09-06T18:38:43.896Z,1.10
2022-09-06T18:41:34.038Z,1.00
2022-09-06T18:44:03.488Z,1.10
2022-09-06T18:46:32.415Z,1.10
2022-09-06T18:49:00.282Z,1.13
2022-09-06T18:51:28.605Z,0.90
2022-09-06T18:53:57.509Z,1.10
2022-09-06T18:56:25.400Z,0.90
2022-09-06T18:58:55.584Z,1.00
2022-09-06T19:01:24.991Z,0.93
2022-09-06T19:03:52.689Z,0.82
2022-09-06T19:06:22.283Z,0.60
2022-09-06T19:08:51.977Z,0.77
2022-09-06T19:11:21.036Z,0.77
2022-09-06T19:13:52.262Z,0.57
2022-09-06T19:16:20.581Z,0.73
2022-09-06T19:18:50.075Z,0.50
2022-09-06T19:21:19.279Z,0.50
2022-09-06T19:23:49.184Z,0.50
2022-09-06T19:26:19.276Z,0.50
2022-09-06T19:28:50.150Z,0.50
2022-09-06T19:31:18.643Z,0.60
2022-09-06T19:33:47.850Z,0.50
2022-09-06T19:36:17.991Z,0.38
2022-09-06T19:39:03.199Z,0.40
2022-09-06T19:41:33.731Z,0.30
2022-09-06T19:44:01.723Z,0.40
2022-09-06T19:46:29.420Z,0.50
2022-09-06T19:48:57.261Z,0.30
2022-09-06T19:51:26.671Z,0.30
2022-09-06T19:53:57.499Z,0.20
2022-09-06T19:56:26.843Z,0.45
2022-09-06T19:58:56.271Z,0.40
2022-09-06T20:01:25.451Z,0.38
2022-09-06T20:03:53.805Z,0.30
2022-09-06T20:06:22.351Z,0.20
2022-09-06T20:08:53.277Z,0.30
2022-09-06T20:11:22.784Z,0.40
2022-09-06T20:13:50.474Z,0.40
2022-09-06T20:16:20.774Z,0.38
2022-09-06T20:18:49.455Z,0.40
2022-09-06T20:21:18.453Z,0.80
2022-09-06T20:23:51.301Z,0.60
2022-09-06T20:26:19.991Z,0.77
2022-09-06T20:28:48.804Z,0.80
2022-09-06T20:31:18.989Z,0.70
2022-09-06T20:33:49.748Z,0.80
2022-09-06T20:36:18.697Z,0.80
2022-09-06T20:38:47.964Z,0.80
2022-09-06T20:41:18.853Z,0.90
2022-09-06T20:43:46.467Z,0.70
2022-09-06T20:46:15.782Z,0.88
2022-09-06T20:48:45.336Z,0.80
2022-09-06T20:51:15.436Z,0.80
2022-09-06T20:53:43.181Z,0.80
2022-09-06T20:56:12.343Z,0.87
2022-09-06T20:58:41.741Z,0.80
2022-09-06T21:01:11.096Z,0.80
2022-09-06T21:03:40.676Z,0.90
2022-09-06T21:06:09.626Z,0.75
2022-09-06T21:08:42.009Z,0.90
2022-09-06T21:11:11.666Z,0.90
2022-09-06T21:13:41.150Z,0.83
2022-09-06T21:16:09.600Z,0.80
2022-09-06T21:18:37.559Z,0.90
2022-09-06T21:21:07.221Z,0.70
2022-09-06T21:23:36.772Z,0.70
2022-09-06T21:26:05.748Z,0.77
2022-09-06T21:28:35.445Z,0.80
2022-09-06T21:31:08.040Z,0.80
2022-09-06T21:33:37.468Z,0.87
2022-09-06T21:36:07.040Z,0.90
2022-09-06T21:38:35.396Z,0.80
2022-09-06T21:41:03.392Z,0.80
2022-09-06T21:43:31.550Z,0.90
2022-09-06T21:46:01.713Z,0.80
2022-09-06T21:48:30.940Z,0.70
2022-09-06T21:50:59.175Z,0.70
2022-09-06T21:53:27.089Z,0.80
2022-09-06T21:56:00.321Z,0.80
2022-09-06T21:58:28.293Z,0.70
2022-09-06T22:00:59.476Z,0.80
2022-09-06T22:03:27.854Z,0.90
2022-09-06T22:05:56.901Z,1.10
2022-09-06T22:08:25.252Z,0.80
2022-09-06T22:10:52.980Z,0.90
2022-09-06T22:13:21.390Z,1.03
2022-09-06T22:15:49.165Z,0.80
2022-09-06T22:18:16.801Z,0.73
2022-09-06T22:20:44.475Z,0.83
2022-09-06T22:23:13.415Z,0.90
2022-09-06T22:25:41.903Z,1.00
2022-09-06T22:28:09.812Z,1.00
2022-09-06T22:30:37.404Z,1.00
2022-09-06T22:33:04.992Z,0.87
2022-09-06T22:35:32.766Z,0.90
2022-09-06T22:38:00.339Z,1.00
2022-09-06T22:40:29.261Z,1.00
2022-09-06T22:42:56.884Z,1.00
2022-09-06T22:45:24.484Z,1.00
2022-09-06T22:47:52.036Z,1.00
2022-09-06T22:50:19.599Z,1.00
2022-09-06T22:52:47.267Z,1.10
2022-09-06T22:55:14.980Z,0.90
2022-09-06T22:57:43.935Z,0.70
2022-09-06T23:00:13.730Z,1.00
2022-09-06T23:02:41.320Z,0.80
2022-09-06T23:05:09.697Z,0.90
2022-09-06T23:07:37.468Z,0.80
2022-09-06T23:10:05.807Z,0.77
2022-09-06T23:12:33.475Z,0.80
2022-09-06T23:15:02.487Z,0.90
2022-09-06T23:17:30.210Z,0.90
2022-09-06T23:19:57.798Z,0.90
2022-09-06T23:22:25.584Z,0.80
2022-09-06T23:24:53.198Z,0.80
2022-09-06T23:27:20.777Z,0.73
2022-09-06T23:29:48.456Z,0.90
2022-09-06T23:32:17.425Z,0.80
2022-09-06T23:34:44.998Z,0.90
2022-09-06T23:37:12.661Z,0.80
2022-09-06T23:39:40.278Z,0.80
2022-09-06T23:42:08.411Z,0.83
2022-09-06T23:44:35.981Z,1.07
2022-09-06T23:47:03.603Z,1.07
2022-09-06T23:49:32.611Z,1.20
2022-09-06T23:52:00.199Z,1.30
2022-09-06T23:54:27.779Z,1.40
2022-09-06T23:56:55.382Z,1.20
2022-09-06T23:59:23.009Z,1.30
